createdAt,value
2018-05-02T00:00:59.291Z,88.90
2018-05-02T00:01:58.584Z,88.53
2018-05-02T00:02:58.570Z,88.53
2018-05-02T00:03:58.584Z,88.05
2018-05-02T00:04:58.574Z,87.95
2018-05-02T00:05:58.581Z,88.24
2018-05-02T00:06:58.574Z,88.62
2018-05-02T00:07:58.593Z,89.47
2018-05-02T00:08:58.573Z,89.38
2018-05-02T00:09:58.575Z,89.19
2018-05-02T00:10:58.578Z,89.00
2018-05-02T00:11:58.564Z,89.00
2018-05-02T00:12:58.559Z,88.81
2018-05-02T00:13:58.665Z,88.81
2018-05-02T00:14:58.573Z,88.81
2018-05-02T00:15:58.568Z,89.28
2018-05-02T00:16:58.571Z,89.38
2018-05-02T00:17:58.637Z,90.23
2018-05-02T00:18:58.565Z,90.71
2018-05-02T00:19:58.563Z,90.33
2018-05-02T00:20:58.569Z,90.61
2018-05-02T00:21:58.569Z,91.75
2018-05-02T00:22:58.612Z,91.85
2018-05-02T00:23:58.601Z,92.51
2018-05-02T00:24:58.559Z,92.90
2018-05-02T00:25:58.579Z,92.61
2018-05-02T00:26:58.571Z,92.51
2018-05-02T00:27:58.563Z,92.51
2018-05-02T00:28:58.559Z,93.27
2018-05-02T00:29:58.563Z,92.61
2018-05-02T00:30:58.554Z,92.90
2018-05-02T00:31:58.555Z,92.71
2018-05-02T00:32:58.558Z,92.80
2018-05-02T00:33:58.629Z,92.71
2018-05-02T00:34:58.562Z,92.71
2018-05-02T00:35:58.570Z,92.71
2018-05-02T00:36:58.552Z,92.61
2018-05-02T00:37:58.559Z,92.61
2018-05-02T00:38:58.559Z,92.51
2018-05-02T00:39:58.554Z,92.56
2018-05-02T00:40:58.554Z,93.08
2018-05-02T00:41:58.553Z,92.80
2018-05-02T00:42:58.553Z,92.61
2018-05-02T00:43:58.555Z,92.66
2018-05-02T00:44:59.304Z,92.80
2018-05-02T00:45:58.550Z,92.71
2018-05-02T00:46:58.550Z,93.89
2018-05-02T00:47:58.583Z,93.99
2018-05-02T00:48:58.585Z,94.79
2018-05-02T00:49:58.582Z,95.08
2018-05-02T00:50:58.563Z,94.60
2018-05-02T00:51:58.557Z,94.98
2018-05-02T00:52:58.554Z,94.37
2018-05-02T00:53:58.554Z,94.74
2018-05-02T00:54:58.549Z,94.74
2018-05-02T00:55:58.566Z,95.70
2018-05-02T00:56:58.544Z,95.98
2018-05-02T00:57:58.552Z,95.31
2018-05-02T00:58:58.544Z,95.89
2018-05-02T00:59:58.543Z,94.84
2018-05-02T01:00:58.564Z,95.41
2018-05-02T01:01:58.556Z,94.84
2018-05-02T01:02:58.548Z,94.84
2018-05-02T01:03:58.558Z,94.93
2018-05-02T01:04:58.564Z,94.74
2018-05-02T01:05:58.569Z,94.56
2018-05-02T01:06:58.542Z,94.27
2018-05-02T01:07:58.553Z,94.65
2018-05-02T01:08:58.532Z,95.03
2018-05-02T01:09:58.543Z,93.99
2018-05-02T01:10:58.528Z,94.84
2018-05-02T01:11:58.533Z,94.56
2018-05-02T01:12:58.560Z,95.03
2018-05-02T01:13:58.529Z,95.03
2018-05-02T01:14:58.538Z,95.12
2018-05-02T01:15:58.539Z,93.80
2018-05-02T01:16:58.538Z,94.18
2018-05-02T01:17:58.531Z,94.27
2018-05-02T01:18:58.593Z,95.03
2018-05-02T01:19:58.538Z,95.22
2018-05-02T01:20:58.532Z,94.93
2018-05-02T01:21:58.542Z,95.17
2018-05-02T01:22:58.539Z,95.79
2018-05-02T01:23:58.548Z,95.31
2018-05-02T01:24:58.524Z,94.56
2018-05-02T01:25:58.527Z,94.84
2018-05-02T01:26:58.534Z,94.74
2018-05-02T01:27:58.551Z,95.22
2018-05-02T01:28:58.527Z,95.31
2018-05-02T01:29:58.549Z,95.31
2018-05-02T01:30:58.525Z,95.41
2018-05-02T01:31:59.309Z,95.89
2018-05-02T01:32:58.527Z,95.51
2018-05-02T01:33:58.542Z,95.70
2018-05-02T01:34:58.525Z,95.89
2018-05-02T01:35:58.524Z,96.45
2018-05-02T01:36:58.520Z,96.08
2018-05-02T01:37:58.536Z,95.98
2018-05-02T01:38:58.517Z,95.79
2018-05-02T01:39:58.519Z,96.83
2018-05-02T01:40:58.522Z,96.36
2018-05-02T01:41:58.535Z,96.74
2018-05-02T01:42:58.522Z,96.45
2018-05-02T01:43:58.512Z,96.45
2018-05-02T01:44:58.588Z,96.17
2018-05-02T01:45:58.524Z,95.89
2018-05-02T01:46:58.556Z,97.02
2018-05-02T01:47:58.528Z,96.26
2018-05-02T01:48:58.511Z,96.55
2018-05-02T01:49:58.513Z,97.22
2018-05-02T01:50:58.514Z,96.93
2018-05-02T01:51:58.516Z,96.83
2018-05-02T01:52:58.509Z,96.36
2018-05-02T01:53:58.502Z,96.64
2018-05-02T01:54:58.515Z,96.83
2018-05-02T01:55:58.515Z,97.41
2018-05-02T01:56:58.521Z,96.74
2018-05-02T01:57:58.510Z,97.41
2018-05-02T01:58:58.521Z,96.83
2018-05-02T01:59:58.508Z,96.83
2018-05-02T02:00:58.508Z,98.16
2018-05-02T02:01:58.506Z,98.54
2018-05-02T02:02:58.500Z,98.07
2018-05-02T02:03:58.524Z,97.60
2018-05-02T02:04:58.505Z,96.93
2018-05-02T02:05:58.516Z,96.74
2018-05-02T02:06:58.501Z,97.69
2018-05-02T02:07:58.506Z,97.41
2018-05-02T02:08:58.509Z,97.22
2018-05-02T02:09:58.488Z,97.60
2018-05-02T02:10:58.488Z,97.88
2018-05-02T02:11:58.545Z,98.35
2018-05-02T02:12:58.496Z,98.73
2018-05-02T02:13:58.495Z,98.35
2018-05-02T02:14:58.484Z,98.16
2018-05-02T02:15:58.499Z,98.92
2018-05-02T02:16:58.503Z,98.16
2018-05-02T02:17:58.484Z,98.54
2018-05-02T02:18:58.511Z,98.54
2018-05-02T02:19:58.489Z,98.83
2018-05-02T02:20:58.480Z,98.64
2018-05-02T02:21:58.485Z,98.83
2018-05-02T02:22:58.484Z,99.11
2018-05-02T02:23:58.480Z,99.21
2018-05-02T02:24:58.484Z,99.30
2018-05-02T02:25:58.489Z,99.68
2018-05-02T02:26:58.474Z,99.99
2018-05-02T02:27:58.483Z,99.99
2018-05-02T02:28:58.592Z,99.99
2018-05-02T02:29:58.486Z,99.87
2018-05-02T02:30:58.473Z,99.99
2018-05-02T02:31:58.492Z,99.99
2018-05-02T02:32:58.473Z,99.99
2018-05-02T02:33:58.499Z,99.99
2018-05-02T02:34:58.467Z,99.99
2018-05-02T02:35:58.499Z,99.99
2018-05-02T02:36:58.468Z,99.99
2018-05-02T02:37:58.468Z,99.99
2018-05-02T02:38:58.475Z,99.99
2018-05-02T02:39:58.470Z,99.99
2018-05-02T02:40:58.467Z,99.99
2018-05-02T02:41:58.516Z,99.99
2018-05-02T02:42:58.469Z,99.99
2018-05-02T02:43:58.463Z,99.99
2018-05-02T02:44:58.466Z,99.99
2018-05-02T02:45:58.474Z,99.99
2018-05-02T02:46:58.470Z,99.99
2018-05-02T02:47:58.477Z,99.99
2018-05-02T02:48:58.470Z,99.99
2018-05-02T02:49:58.455Z,99.99
2018-05-02T02:50:58.482Z,99.99
2018-05-02T02:51:58.471Z,99.99
2018-05-02T02:52:58.466Z,99.99
2018-05-02T02:53:58.448Z,99.99
2018-05-02T02:54:58.455Z,99.99
2018-05-02T02:55:58.455Z,99.99
2018-05-02T02:56:58.460Z,99.99
2018-05-02T02:57:58.465Z,99.99
2018-05-02T02:58:58.450Z,99.99
2018-05-02T02:59:58.573Z,99.99
2018-05-02T03:00:58.448Z,99.99
2018-05-02T03:01:58.489Z,99.99
2018-05-02T03:02:58.451Z,99.99
2018-05-02T03:03:58.442Z,99.99
2018-05-02T03:04:58.470Z,99.99
2018-05-02T03:05:58.455Z,99.99
2018-05-02T03:06:58.465Z,99.99
2018-05-02T03:07:58.445Z,99.99
2018-05-02T03:08:58.445Z,99.99
2018-05-02T03:09:58.451Z,99.99
2018-05-02T03:10:58.452Z,99.99
2018-05-02T03:11:58.442Z,99.99
2018-05-02T03:12:58.445Z,99.99
2018-05-02T03:13:58.447Z,99.99
2018-05-02T03:14:58.439Z,99.99
2018-05-02T03:15:58.433Z,99.99
2018-05-02T03:16:58.436Z,99.99
2018-05-02T03:17:58.436Z,99.99
2018-05-02T03:18:58.439Z,99.99
2018-05-02T03:19:58.434Z,99.99
2018-05-02T03:20:58.444Z,99.99
2018-05-02T03:21:58.426Z,99.99
2018-05-02T03:22:58.436Z,99.99
2018-05-02T03:23:58.443Z,99.99
2018-05-02T03:24:58.444Z,99.99
2018-05-02T03:25:58.567Z,99.99
2018-05-02T03:26:58.425Z,99.99
2018-05-02T03:27:58.431Z,99.99
2018-05-02T03:28:58.442Z,99.99
2018-05-02T03:29:58.422Z,99.99
2018-05-02T03:30:58.457Z,99.99
2018-05-02T03:31:58.416Z,99.99
2018-05-02T03:32:58.423Z,99.99
2018-05-02T03:33:58.418Z,99.99
2018-05-02T03:34:58.410Z,99.99
2018-05-02T03:35:58.412Z,99.99
2018-05-02T03:36:58.416Z,99.99
2018-05-02T03:37:58.459Z,99.99
2018-05-02T03:38:58.433Z,99.99
2018-05-02T03:39:58.420Z,99.99
2018-05-02T03:40:58.428Z,99.99
2018-05-02T03:41:58.409Z,99.99
2018-05-02T03:42:58.415Z,99.99
2018-05-02T03:43:58.412Z,99.99
2018-05-02T03:44:58.403Z,99.99
2018-05-02T03:45:58.404Z,99.99
2018-05-02T03:46:58.457Z,99.99
2018-05-02T03:47:58.407Z,99.99
2018-05-02T03:48:58.407Z,99.99
2018-05-02T03:49:58.397Z,99.99
2018-05-02T03:50:58.413Z,99.99
2018-05-02T03:51:58.406Z,99.99
2018-05-02T03:52:58.481Z,99.99
2018-05-02T03:53:58.400Z,99.99
2018-05-02T03:54:58.401Z,99.99
2018-05-02T03:55:58.407Z,99.99
2018-05-02T03:56:59.332Z,99.99
2018-05-02T03:57:58.389Z,99.99
2018-05-02T03:58:58.410Z,99.99
2018-05-02T03:59:58.431Z,99.99
2018-05-02T04:00:58.387Z,99.99
2018-05-02T04:01:58.401Z,99.99
2018-05-02T04:02:58.388Z,99.99
2018-05-02T04:03:58.384Z,99.99
2018-05-02T04:04:58.403Z,99.99
2018-05-02T04:05:58.396Z,99.99
2018-05-02T04:06:58.389Z,99.99
2018-05-02T04:07:58.384Z,99.99
2018-05-02T04:08:58.377Z,99.99
2018-05-02T04:09:58.381Z,99.99
2018-05-02T04:10:58.399Z,99.99
2018-05-02T04:11:58.376Z,99.99
2018-05-02T04:12:58.388Z,99.99
2018-05-02T04:13:58.383Z,99.99
2018-05-02T04:14:58.374Z,99.99
2018-05-02T04:15:58.371Z,99.99
2018-05-02T04:16:58.366Z,99.99
2018-05-02T04:17:58.375Z,99.99
2018-05-02T04:18:58.384Z,99.99
2018-05-02T04:19:58.373Z,99.99
2018-05-02T04:20:58.379Z,99.99
2018-05-02T04:21:58.368Z,99.99
2018-05-02T04:22:58.495Z,99.99
2018-05-02T04:23:58.374Z,99.99
2018-05-02T04:24:58.359Z,99.99
2018-05-02T04:25:58.442Z,99.99
2018-05-02T04:26:58.402Z,99.99
2018-05-02T04:27:58.363Z,99.99
2018-05-02T04:28:58.358Z,99.99
2018-05-02T04:29:58.383Z,99.99
2018-05-02T04:30:58.417Z,99.99
2018-05-02T04:31:58.362Z,99.99
2018-05-02T04:32:58.365Z,99.99
2018-05-02T04:33:58.360Z,99.99
2018-05-02T04:34:58.397Z,99.99
2018-05-02T04:35:58.448Z,99.99
2018-05-02T04:36:58.352Z,99.99
2018-05-02T04:37:58.349Z,99.99
2018-05-02T04:38:58.352Z,99.99
2018-05-02T04:39:58.364Z,99.99
2018-05-02T04:40:58.406Z,99.99
2018-05-02T04:41:58.353Z,99.99
2018-05-02T04:42:58.353Z,99.99
2018-05-02T04:43:58.369Z,99.99
2018-05-02T04:44:58.346Z,99.99
2018-05-02T04:45:58.346Z,99.99
2018-05-02T04:46:58.362Z,99.99
2018-05-02T04:47:58.385Z,99.99
2018-05-02T04:48:58.367Z,99.99
2018-05-02T04:49:58.335Z,99.99
2018-05-02T04:50:58.357Z,99.99
2018-05-02T04:51:58.421Z,99.99
2018-05-02T04:52:58.364Z,99.99
2018-05-02T04:53:58.334Z,99.49
2018-05-02T04:54:58.332Z,99.11
2018-05-02T04:55:58.333Z,99.68
2018-05-02T04:56:58.334Z,99.11
2018-05-02T04:57:58.326Z,99.30
2018-05-02T04:58:58.335Z,99.49
2018-05-02T04:59:58.327Z,98.79
2018-05-02T05:00:58.378Z,98.31
2018-05-02T05:01:58.330Z,98.21
2018-05-02T05:02:58.328Z,98.31
2018-05-02T05:03:58.325Z,98.31
2018-05-02T05:04:58.324Z,98.50
2018-05-02T05:05:58.331Z,98.12
2018-05-02T05:06:58.364Z,98.88
2018-05-02T05:07:58.343Z,98.40
2018-05-02T05:08:58.333Z,97.55
2018-05-02T05:09:58.377Z,97.36
2018-05-02T05:10:58.323Z,96.79
2018-05-02T05:11:58.335Z,96.69
2018-05-02T05:12:58.326Z,96.88
2018-05-02T05:13:58.308Z,96.60
2018-05-02T05:14:58.335Z,95.84
2018-05-02T05:15:58.317Z,95.08
2018-05-02T05:16:58.340Z,94.60
2018-05-02T05:17:58.316Z,94.79
2018-05-02T05:18:58.307Z,94.74
2018-05-02T05:19:58.309Z,94.56
2018-05-02T05:20:58.311Z,93.99
2018-05-02T05:21:58.314Z,94.27
2018-05-02T05:22:58.393Z,93.70
2018-05-02T05:23:58.299Z,93.32
2018-05-02T05:24:58.313Z,92.85
2018-05-02T05:25:58.302Z,91.89
2018-05-02T05:26:58.314Z,92.41
2018-05-02T05:27:58.320Z,91.37
2018-05-02T05:28:58.320Z,89.18
2018-05-02T05:29:58.314Z,86.12
2018-05-02T05:30:58.327Z,81.20
2018-05-02T05:31:58.308Z,76.37
2018-05-02T05:32:58.303Z,74.52
2018-05-02T05:33:58.303Z,74.13
2018-05-02T05:34:59.384Z,75.15
2018-05-02T05:35:58.307Z,76.21
2018-05-02T05:36:58.300Z,78.31
2018-05-02T05:37:58.299Z,78.69
2018-05-02T05:38:58.847Z,78.83
2018-05-02T05:39:58.301Z,78.78
2018-05-02T05:40:58.848Z,78.88
2018-05-02T05:41:58.308Z,79.99
2018-05-02T05:42:58.315Z,80.31
2018-05-02T05:43:58.317Z,80.60
2018-05-02T05:44:58.306Z,80.22
2018-05-02T05:45:58.532Z,79.55
2018-05-02T05:46:58.440Z,78.88
2018-05-02T05:47:58.453Z,78.10
2018-05-02T05:48:58.433Z,75.47
2018-05-02T05:49:58.318Z,74.52
2018-05-02T05:50:58.302Z,73.41
2018-05-02T05:51:58.301Z,71.41
2018-05-02T05:52:58.324Z,69.56
2018-05-02T05:53:58.336Z,68.74
2018-05-02T05:54:58.303Z,66.96
2018-05-02T05:55:58.328Z,63.83
2018-05-02T05:56:58.308Z,61.88
2018-05-02T05:57:58.342Z,60.41
2018-05-02T05:58:58.348Z,57.95
2018-05-02T05:59:58.332Z,56.51
2018-05-02T06:00:58.323Z,55.35
2018-05-02T06:01:58.337Z,55.58
2018-05-02T06:02:58.316Z,56.00
2018-05-02T06:03:58.857Z,55.67
2018-05-02T06:04:58.322Z,54.33
2018-05-02T06:05:58.343Z,52.91
2018-05-02T06:06:58.334Z,51.64
2018-05-02T06:07:58.346Z,52.98
2018-05-02T06:08:58.349Z,53.05
2018-05-02T06:09:58.357Z,55.23
2018-05-02T06:10:58.356Z,53.85
2018-05-02T06:11:58.363Z,53.91
2018-05-02T06:12:58.349Z,54.30
2018-05-02T06:13:58.354Z,53.01
2018-05-02T06:14:58.381Z,51.50
2018-05-02T06:15:58.371Z,51.47
2018-05-02T06:16:59.365Z,50.68
2018-05-02T06:17:58.381Z,51.50
2018-05-02T06:18:58.450Z,51.28
2018-05-02T06:19:58.410Z,50.63
2018-05-02T06:20:58.381Z,50.56
2018-05-02T06:21:58.383Z,49.60
2018-05-02T06:22:58.396Z,50.08
2018-05-02T06:23:58.431Z,49.89
2018-05-02T06:24:58.405Z,49.02
2018-05-02T06:25:58.409Z,47.97
2018-05-02T06:26:58.422Z,47.49
2018-05-02T06:27:58.427Z,48.33
2018-05-02T06:28:58.434Z,50.13
2018-05-02T06:29:58.411Z,49.77
2018-05-02T06:30:58.431Z,49.15
2018-05-02T06:31:58.965Z,50.94
2018-05-02T06:32:58.446Z,52.48
2018-05-02T06:33:58.473Z,52.95
2018-05-02T06:34:58.462Z,52.95
2018-05-02T06:35:58.451Z,52.50
2018-05-02T06:36:58.448Z,51.35
2018-05-02T06:37:58.585Z,50.54
2018-05-02T06:38:58.460Z,50.15
2018-05-02T06:39:58.466Z,49.79
2018-05-02T06:40:58.609Z,48.83
2018-05-02T06:41:58.468Z,48.71
2018-05-02T06:42:58.508Z,49.02
2018-05-02T06:43:58.478Z,47.68
2018-05-02T06:44:59.379Z,48.35
2018-05-02T06:45:58.490Z,48.25
2018-05-02T06:46:58.510Z,47.31
2018-05-02T06:47:58.505Z,46.77
2018-05-02T06:48:58.509Z,46.19
2018-05-02T06:49:58.513Z,45.17
2018-05-02T06:50:58.561Z,46.45
2018-05-02T06:51:58.529Z,47.03
2018-05-02T06:52:58.532Z,47.80
2018-05-02T06:53:58.536Z,47.89
2018-05-02T06:54:59.385Z,47.41
2018-05-02T06:55:58.557Z,47.41
2018-05-02T06:56:58.567Z,47.61
2018-05-02T06:57:59.384Z,45.99
2018-05-02T06:58:58.569Z,45.22
2018-05-02T06:59:58.606Z,45.49
2018-05-02T07:00:58.659Z,46.04
2018-05-02T07:01:59.395Z,47.77
2018-05-02T07:03:01.891Z,47.41
2018-05-02T07:03:58.699Z,47.13
2018-05-02T07:04:58.617Z,46.55
2018-05-02T07:05:58.632Z,47.41
2018-05-02T07:06:58.665Z,47.15
2018-05-02T07:07:59.393Z,46.14
2018-05-02T07:08:58.646Z,46.21
2018-05-02T07:09:58.674Z,46.09
2018-05-02T07:10:58.663Z,45.83
2018-05-02T07:11:58.683Z,45.99
2018-05-02T07:12:58.673Z,45.36
2018-05-02T07:13:58.691Z,44.13
2018-05-02T07:14:59.493Z,43.48
2018-05-02T07:16:00.467Z,42.18
2018-05-02T07:16:58.709Z,41.57
2018-05-02T07:17:58.745Z,42.71
2018-05-02T07:18:58.737Z,43.19
2018-05-02T07:19:58.745Z,41.77
2018-05-02T07:20:58.749Z,41.92
2018-05-02T07:21:58.796Z,42.21
2018-05-02T07:22:58.891Z,42.52
2018-05-02T07:23:58.799Z,42.69
2018-05-02T07:24:58.844Z,42.26
2018-05-02T07:25:58.794Z,44.69
2018-05-02T07:26:58.800Z,44.40
2018-05-02T07:27:58.805Z,44.23
2018-05-02T07:28:58.875Z,43.00
2018-05-02T07:29:58.851Z,43.55
2018-05-02T07:30:58.854Z,43.29
2018-05-02T07:31:58.850Z,44.15
2018-05-02T07:32:59.696Z,43.19
2018-05-02T07:33:58.866Z,43.10
2018-05-02T07:34:58.931Z,42.42
2018-05-02T07:35:58.913Z,42.30
2018-05-02T07:36:58.902Z,44.27
2018-05-02T07:37:58.906Z,41.88
2018-05-02T07:38:58.941Z,39.95
2018-05-02T07:39:58.928Z,39.95
2018-05-02T07:40:59.008Z,39.76
2018-05-02T07:41:58.961Z,41.67
2018-05-02T07:42:58.982Z,41.38
2018-05-02T07:43:59.016Z,41.71
2018-05-02T07:44:58.991Z,42.42
2018-05-02T07:45:59.105Z,42.35
2018-05-02T07:46:59.913Z,41.03
2018-05-02T07:47:59.033Z,41.78
2018-05-02T07:48:59.072Z,42.36
2018-05-02T07:49:59.053Z,42.54
2018-05-02T07:50:59.069Z,42.56
2018-05-02T07:51:59.072Z,42.83
2018-05-02T07:52:59.107Z,42.15
2018-05-02T07:53:59.088Z,41.86
2018-05-02T07:55:00.127Z,42.36
2018-05-02T07:55:59.939Z,41.30
2018-05-02T07:56:59.152Z,41.46
2018-05-02T07:57:59.146Z,40.12
2018-05-02T07:58:59.262Z,40.03
2018-05-02T07:59:59.212Z,40.32
2018-05-02T08:00:59.281Z,41.86
2018-05-02T08:01:59.184Z,40.95
2018-05-02T08:02:59.262Z,41.72
2018-05-02T08:03:59.695Z,42.03
2018-05-02T08:04:59.238Z,42.76
2018-05-02T08:05:59.928Z,42.49
2018-05-02T08:06:59.244Z,41.84
2018-05-02T08:07:59.284Z,41.82
2018-05-02T08:08:59.300Z,42.11
2018-05-02T08:09:59.298Z,42.32
2018-05-02T08:10:59.317Z,41.46
2018-05-02T08:11:59.365Z,40.69
2018-05-02T08:12:59.316Z,41.48
2018-05-02T08:13:59.376Z,39.86
2018-05-02T08:14:59.343Z,38.87
2018-05-02T08:15:59.354Z,38.39
2018-05-02T08:16:59.402Z,39.01
2018-05-02T08:17:59.434Z,38.70
2018-05-02T08:18:59.424Z,39.09
2018-05-02T08:19:59.430Z,39.64
2018-05-02T08:20:59.420Z,40.03
2018-05-02T08:21:59.474Z,39.66
2018-05-02T08:22:59.473Z,40.55
2018-05-02T08:23:59.756Z,40.94
2018-05-02T08:24:59.484Z,39.20
2018-05-02T08:25:59.522Z,38.43
2018-05-02T08:26:59.542Z,40.05
2018-05-02T08:27:59.543Z,39.47
2018-05-02T08:29:00.442Z,38.66
2018-05-02T08:30:00.565Z,40.03
2018-05-02T08:30:59.635Z,39.34
2018-05-02T08:31:59.575Z,39.74
2018-05-02T08:32:59.754Z,38.81
2018-05-02T08:33:59.686Z,38.16
2018-05-02T08:34:59.743Z,38.64
2018-05-02T08:35:59.785Z,38.14
2018-05-02T08:36:59.699Z,37.85
2018-05-02T08:37:59.748Z,38.31
2018-05-02T08:38:59.710Z,39.01
2018-05-02T08:39:59.703Z,39.47
2018-05-02T08:40:59.706Z,40.69
2018-05-02T08:41:59.732Z,41.07
2018-05-02T08:42:59.761Z,40.99
2018-05-02T08:43:59.755Z,40.53
2018-05-02T08:44:59.766Z,40.53
2018-05-02T08:45:59.836Z,41.02
2018-05-02T08:46:59.854Z,41.46
2018-05-02T08:47:59.857Z,41.75
2018-05-02T08:48:59.840Z,41.14
2018-05-02T08:49:59.924Z,42.44
2018-05-02T08:50:59.900Z,40.63
2018-05-02T08:51:59.899Z,40.55
2018-05-02T08:52:59.894Z,40.28
2018-05-02T08:53:59.932Z,38.76
2018-05-02T08:54:59.929Z,38.99
2018-05-02T08:56:00.950Z,40.11
2018-05-02T08:56:59.955Z,40.01
2018-05-02T08:57:59.971Z,43.41
2018-05-02T08:59:00.183Z,45.20
2018-05-02T09:00:00.064Z,47.30
2018-05-02T09:01:00.057Z,48.54
2018-05-02T09:02:00.065Z,49.10
2018-05-02T09:03:00.077Z,48.97
2018-05-02T09:04:00.077Z,50.08
2018-05-02T09:05:00.113Z,51.14
2018-05-02T09:06:00.182Z,50.68
2018-05-02T09:07:00.112Z,51.51
2018-05-02T09:08:00.153Z,51.28
2018-05-02T09:09:00.224Z,49.43
2018-05-02T09:10:00.147Z,45.83
2018-05-02T09:11:00.189Z,43.55
2018-05-02T09:12:00.210Z,43.90
2018-05-02T09:13:00.316Z,45.22
2018-05-02T09:14:00.237Z,45.20
2018-05-02T09:15:00.187Z,45.73
2018-05-02T09:16:00.222Z,42.69
2018-05-02T09:17:00.581Z,42.96
2018-05-02T09:18:00.274Z,43.44
2018-05-02T09:19:00.343Z,43.30
2018-05-02T09:20:00.289Z,44.17
2018-05-02T09:21:00.291Z,43.65
2018-05-02T09:22:00.322Z,42.93
2018-05-02T09:23:00.311Z,44.41
2018-05-02T09:24:00.322Z,45.85
2018-05-02T09:25:00.321Z,49.48
2018-05-02T09:26:00.327Z,51.18
2018-05-02T09:27:00.342Z,50.90
2018-05-02T09:28:00.377Z,50.87
2018-05-02T09:29:00.441Z,49.52
2018-05-02T09:30:00.410Z,49.24
2018-05-02T09:31:00.425Z,49.15
2018-05-02T09:32:00.579Z,47.99
2018-05-02T09:33:00.399Z,45.07
2018-05-02T09:34:00.433Z,41.14
2018-05-02T09:35:00.497Z,40.37
2018-05-02T09:36:00.456Z,40.91
2018-05-02T09:37:00.441Z,41.95
2018-05-02T09:38:00.477Z,42.30
2018-05-02T09:39:00.469Z,43.91
2018-05-02T09:40:00.493Z,45.21
2018-05-02T09:41:00.502Z,45.88
2018-05-02T09:42:00.516Z,46.31
2018-05-02T09:43:00.549Z,45.47
2018-05-02T09:44:00.529Z,45.18
2018-05-02T09:45:00.522Z,45.29
2018-05-02T09:46:00.528Z,44.07
2018-05-02T09:47:00.584Z,43.08
2018-05-02T09:48:00.557Z,41.38
2018-05-02T09:49:00.614Z,39.68
2018-05-02T09:50:01.501Z,39.78
2018-05-02T09:51:01.630Z,40.12
2018-05-02T09:52:00.667Z,41.76
2018-05-02T09:53:00.806Z,42.14
2018-05-02T09:54:01.565Z,41.66
2018-05-02T09:55:00.638Z,42.22
2018-05-02T09:56:01.726Z,43.02
2018-05-02T09:57:00.809Z,44.29
2018-05-02T09:58:00.819Z,44.77
2018-05-02T09:59:00.678Z,45.06
2018-05-02T10:00:00.717Z,45.92
2018-05-02T10:01:00.711Z,45.83
2018-05-02T10:02:00.748Z,45.90
2018-05-02T10:03:00.778Z,46.31
2018-05-02T10:04:00.723Z,46.04
2018-05-02T10:05:00.726Z,45.37
2018-05-02T10:06:00.753Z,43.64
2018-05-02T10:07:00.776Z,44.29
2018-05-02T10:08:00.774Z,45.73
2018-05-02T10:09:00.820Z,45.87
2018-05-02T10:10:00.857Z,44.65
2018-05-02T10:11:00.809Z,44.22
2018-05-02T10:12:00.860Z,45.37
2018-05-02T10:13:00.911Z,46.50
2018-05-02T10:14:00.822Z,48.30
2018-05-02T10:15:00.842Z,50.13
2018-05-02T10:16:00.833Z,50.23
2018-05-02T10:17:00.864Z,47.30
2018-05-02T10:18:00.866Z,45.37
2018-05-02T10:19:00.865Z,45.29
2018-05-02T10:20:00.901Z,43.99
2018-05-02T10:21:00.876Z,45.42
2018-05-02T10:22:01.511Z,45.78
2018-05-02T10:23:00.925Z,46.09
2018-05-02T10:24:00.908Z,44.96
2018-05-02T10:25:01.515Z,44.59
2018-05-02T10:26:00.927Z,42.88
2018-05-02T10:27:00.953Z,42.42
2018-05-02T10:28:01.046Z,41.28
2018-05-02T10:29:01.031Z,39.26
2018-05-02T10:30:00.994Z,39.09
2018-05-02T10:31:00.965Z,38.64
2018-05-02T10:32:01.071Z,37.96
2018-05-02T10:33:01.018Z,37.21
2018-05-02T10:34:01.058Z,36.74
2018-05-02T10:35:01.062Z,37.58
2018-05-02T10:36:01.055Z,38.83
2018-05-02T10:37:01.212Z,38.56
2018-05-02T10:38:01.164Z,38.70
2018-05-02T10:39:01.199Z,40.07
2018-05-02T10:40:01.089Z,39.94
2018-05-02T10:41:01.110Z,40.95
2018-05-02T10:42:01.108Z,42.79
2018-05-02T10:43:01.215Z,41.38
2018-05-02T10:44:01.176Z,40.70
2018-05-02T10:45:01.151Z,39.76
2018-05-02T10:46:01.177Z,39.74
2018-05-02T10:47:01.190Z,38.85
2018-05-02T10:48:02.048Z,39.95
2018-05-02T10:49:01.209Z,40.32
2018-05-02T10:50:01.245Z,41.82
2018-05-02T10:51:01.290Z,43.27
2018-05-02T10:52:01.309Z,44.73
2018-05-02T10:53:01.309Z,41.28
2018-05-02T10:54:02.028Z,41.67
2018-05-02T10:55:01.444Z,39.16
2018-05-02T10:56:01.409Z,39.89
2018-05-02T10:57:01.313Z,42.40
2018-05-02T10:58:01.426Z,44.71
2018-05-02T10:59:01.441Z,43.55
2018-05-02T11:00:01.488Z,43.24
2018-05-02T11:01:01.525Z,43.63
2018-05-02T11:02:01.388Z,42.65
2018-05-02T11:03:01.469Z,43.13
2018-05-02T11:05:34.496Z,42.33
2018-05-02T11:06:33.524Z,42.33
2018-05-02T11:07:33.564Z,44.48
2018-05-02T11:08:33.582Z,42.82
2018-05-02T11:09:33.598Z,41.64
2018-05-02T11:10:33.554Z,42.33
2018-05-02T11:11:33.602Z,42.24
2018-05-02T11:12:33.568Z,43.18
2018-05-02T11:13:33.612Z,43.08
2018-05-02T11:14:33.703Z,43.59
2018-05-02T11:15:33.634Z,42.24
2018-05-02T11:16:33.893Z,41.16
2018-05-02T11:17:33.610Z,40.89
2018-05-02T11:18:33.627Z,42.14
2018-05-02T11:19:34.497Z,42.72
2018-05-02T11:20:34.651Z,42.72
2018-05-02T11:21:33.637Z,43.59
2018-05-02T11:22:33.748Z,42.91
2018-05-02T11:23:33.863Z,42.53
2018-05-02T11:24:33.729Z,44.26
2018-05-02T11:25:34.629Z,43.01
2018-05-02T11:26:33.686Z,41.76
2018-05-02T11:27:33.716Z,42.65
2018-05-02T11:28:33.694Z,42.26
2018-05-02T11:29:33.703Z,44.86
2018-05-02T11:30:33.723Z,41.59
2018-05-02T11:31:33.936Z,40.97
2018-05-02T11:32:33.729Z,42.22
2018-05-02T11:33:33.723Z,41.45
2018-05-02T11:34:33.735Z,41.74
2018-05-02T11:35:34.507Z,41.86
2018-05-02T11:36:33.736Z,42.32
2018-05-02T11:37:34.113Z,42.12
2018-05-02T11:38:34.507Z,44.07
2018-05-02T11:39:33.784Z,43.20
2018-05-02T11:40:33.829Z,42.72
2018-05-02T11:41:33.768Z,42.70
2018-05-02T11:42:33.788Z,42.91
2018-05-02T11:43:33.794Z,42.12
2018-05-02T11:44:33.808Z,41.62
2018-05-02T11:45:33.839Z,43.07
2018-05-02T11:46:33.798Z,44.31
2018-05-02T11:47:33.842Z,45.29
2018-05-02T11:48:33.824Z,46.47
2018-05-02T11:49:33.844Z,44.67
2018-05-02T11:50:34.515Z,43.11
2018-05-02T11:51:33.836Z,42.24
2018-05-02T11:52:33.846Z,43.99
2018-05-02T11:53:33.833Z,43.61
2018-05-02T11:54:33.871Z,40.61
2018-05-02T11:55:33.904Z,40.12
2018-05-02T11:56:34.573Z,42.43
2018-05-02T11:57:34.230Z,40.24
2018-05-02T11:58:33.901Z,40.61
2018-05-02T11:59:33.867Z,40.78
2018-05-02T12:00:34.518Z,41.45
2018-05-02T12:01:33.884Z,42.33
2018-05-02T12:02:33.930Z,42.14
2018-05-02T12:03:33.968Z,42.05
2018-05-02T12:04:33.887Z,42.32
2018-05-02T12:05:33.893Z,41.83
2018-05-02T12:06:33.910Z,41.64
2018-05-02T12:07:33.914Z,42.43
2018-05-02T12:08:33.968Z,43.59
2018-05-02T12:09:33.916Z,41.56
2018-05-02T12:10:33.969Z,40.89
2018-05-02T12:11:33.934Z,41.38
2018-05-02T12:12:34.056Z,42.43
2018-05-02T12:13:35.023Z,42.12
2018-05-02T12:14:33.927Z,41.83
2018-05-02T12:15:33.969Z,41.64
2018-05-02T12:16:33.998Z,42.12
2018-05-02T12:17:33.981Z,42.03
2018-05-02T12:18:33.968Z,41.55
2018-05-02T12:19:33.961Z,41.66
2018-05-02T12:20:33.979Z,42.05
2018-05-02T12:21:33.988Z,41.47
2018-05-02T12:22:33.972Z,41.66
2018-05-02T12:23:33.985Z,41.38
2018-05-02T12:24:33.983Z,42.36
2018-05-02T12:25:33.980Z,43.13
2018-05-02T12:26:34.023Z,42.36
2018-05-02T12:27:34.053Z,41.97
2018-05-02T12:28:34.008Z,41.01
2018-05-02T12:29:34.013Z,41.18
2018-05-02T12:30:34.026Z,41.39
2018-05-02T12:31:35.036Z,40.81
2018-05-02T12:32:34.032Z,41.11
2018-05-02T12:33:34.627Z,43.03
2018-05-02T12:34:34.112Z,42.26
2018-05-02T12:35:34.066Z,42.72
2018-05-02T12:36:34.089Z,42.55
2018-05-02T12:37:34.055Z,42.16
2018-05-02T12:38:34.089Z,42.38
2018-05-02T12:39:34.052Z,41.71
2018-05-02T12:40:34.074Z,41.30
2018-05-02T12:41:34.057Z,41.95
2018-05-02T12:42:34.056Z,42.26
2018-05-02T12:43:34.064Z,41.68
2018-05-02T12:44:35.040Z,40.81
2018-05-02T12:45:34.076Z,41.78
2018-05-02T12:46:34.099Z,40.70
2018-05-02T12:47:34.145Z,41.28
2018-05-02T12:48:34.164Z,43.88
2018-05-02T12:49:34.118Z,43.03
2018-05-02T12:50:34.133Z,42.26
2018-05-02T12:51:34.098Z,41.01
2018-05-02T12:52:34.106Z,41.59
2018-05-02T12:53:34.137Z,42.74
2018-05-02T12:54:34.168Z,42.84